Time;durP1;ratioP1;P1;durP2;ratioP2;P2;SDS_P1;SDS_P2;PMS_P1;PMS_P2;Temp;Humidity;BMP_temperature;BMP_pressure;BME280_temperature;BME280_humidity;BME280_pressure;Samples;Min_cycle;Max_cycle;Signal;HPM_P1;HPM_P2
2022/06/19 00:02:25;;;;;;;10.38;3.35;;;;;;;;;;5071747;28;20377;-49
2022/06/19 00:04:53;;;;;;;7.88;2.90;;;;;;;;;;5071859;28;20115;-50
2022/06/19 00:07:19;;;;;;;7.45;2.13;;;;;;;;;;5071279;28;20099;-55
2022/06/19 00:09:45;;;;;;;6.25;2.33;;;;;;;;;;5075994;28;20469;-52
2022/06/19 00:12:12;;;;;;;11.20;3.15;;;;;;;;;;5091757;28;20377;-52
2022/06/19 00:14:38;;;;;;;8.02;2.88;;;;;;;;;;5076102;28;20775;-50
2022/06/19 00:17:05;;;;;;;10.18;2.60;;;;;;;;;;5071431;28;20365;-52
2022/06/19 00:19:31;;;;;;;11.32;3.20;;;;;;;;;;5071023;28;20029;-48
2022/06/19 00:21:57;;;;;;;6.65;2.28;;;;;;;;;;5071856;28;20020;-51
2022/06/19 00:24:23;;;;;;;10.27;2.72;;;;;;;;;;5070747;28;20037;-56
2022/06/19 00:26:49;;;;;;;7.72;3.03;;;;;;;;;;5071592;28;20092;-49
2022/06/19 00:29:15;;;;;;;7.50;2.53;;;;;;;;;;5072732;28;20104;-53
2022/06/19 00:31:41;;;;;;;11.90;2.85;;;;;;;;;;5069002;28;20107;-50
2022/06/19 00:34:08;;;;;;;8.13;3.33;;;;;;;;;;5071688;28;20044;-51
2022/06/19 00:36:34;;;;;;;9.80;3.13;;;;;;;;;;5070670;28;20024;-49
2022/06/19 00:39:00;;;;;;;14.20;2.85;;;;;;;;;;5071139;28;20052;-51
2022/06/19 00:41:32;;;;;;;12.05;3.10;;;;;;;;;;5070436;28;20024;-49
2022/06/19 00:44:01;;;;;;;4.72;1.70;;;;;;;;;;5071691;28;20107;-52
2022/06/19 00:46:42;;;;;;;4.95;2.25;;;;;;;;;;5071030;28;20021;-51
2022/06/19 00:49:13;;;;;;;5.03;2.13;;;;;;;;;;5068215;28;20147;-49
2022/06/19 00:51:39;;;;;;;9.13;3.53;;;;;;;;;;5051390;28;20029;-48
2022/06/19 00:54:06;;;;;;;6.47;2.28;;;;;;;;;;5057356;28;20032;-52
2022/06/19 00:56:33;;;;;;;9.18;2.70;;;;;;;;;;5070187;28;20060;-48
2022/06/19 00:58:59;;;;;;;8.18;3.70;;;;;;;;;;5064073;28;20029;-48
2022/06/19 01:01:26;;;;;;;9.32;2.88;;;;;;;;;;5050659;28;20051;-56
2022/06/19 01:03:58;;;;;;;7.35;2.70;;;;;;;;;;5051220;28;20053;-48
2022/06/19 01:06:24;;;;;;;6.90;2.08;;;;;;;;;;5051171;28;20116;-54
2022/06/19 01:08:51;;;;;;;8.93;2.75;;;;;;;;;;5052150;28;20059;-49
2022/06/19 01:11:18;;;;;;;5.70;1.95;;;;;;;;;;5086054;28;20027;-53
2022/06/19 01:13:44;;;;;;;6.30;2.80;;;;;;;;;;5089132;28;20008;-48
2022/06/19 01:16:11;;;;;;;7.07;2.45;;;;;;;;;;5086593;28;20492;-50
2022/06/19 01:18:39;;;;;;;8.25;2.33;;;;;;;;;;5074430;28;20028;-50
2022/06/19 01:21:22;;;;;;;5.68;2.22;;;;;;;;;;5076409;28;20482;-47
2022/06/19 01:23:51;;;;;;;11.07;3.40;;;;;;;;;;5074712;28;20059;-49
2022/06/19 01:26:19;;;;;;;6.32;2.50;;;;;;;;;;5074476;28;20029;-51
2022/06/19 01:28:45;;;;;;;7.45;1.95;;;;;;;;;;5073666;28;20444;-48
2022/06/19 01:31:38;;;;;;;4.43;1.90;;;;;;;;;;5074568;28;20161;-48
2022/06/19 01:34:29;;;;;;;9.20;2.08;;;;;;;;;;5070953;28;20090;-49
2022/06/19 01:37:07;;;;;;;9.70;2.80;;;;;;;;;;5072937;28;20021;-48
2022/06/19 01:39:44;;;;;;;6.15;1.95;;;;;;;;;;5071107;28;20024;-50
2022/06/19 01:42:11;;;;;;;4.03;2.03;;;;;;;;;;5070116;28;20440;-49
2022/06/19 01:44:38;;;;;;;8.95;3.08;;;;;;;;;;5072262;28;20036;-51
2022/06/19 01:47:04;;;;;;;5.03;1.77;;;;;;;;;;5073284;28;20024;-49
2022/06/19 01:49:31;;;;;;;6.80;2.10;;;;;;;;;;5072362;28;20047;-49
2022/06/19 01:51:57;;;;;;;6.03;2.10;;;;;;;;;;5071308;28;20028;-50
2022/06/19 01:54:26;;;;;;;11.02;2.40;;;;;;;;;;5072340;28;20363;-56
2022/06/19 01:56:52;;;;;;;6.13;2.78;;;;;;;;;;5072903;28;20036;-50
2022/06/19 01:59:18;;;;;;;6.18;2.17;;;;;;;;;;5072457;28;20136;-49
2022/06/19 02:01:45;;;;;;;7.20;2.35;;;;;;;;;;5071455;28;20361;-48
2022/06/19 02:04:11;;;;;;;5.55;2.30;;;;;;;;;;5072577;28;20489;-50
2022/06/19 02:06:40;;;;;;;6.40;2.10;;;;;;;;;;5072517;28;20039;-50
2022/06/19 02:09:06;;;;;;;4.50;1.80;;;;;;;;;;5071146;28;20475;-48
2022/06/19 02:11:34;;;;;;;6.25;2.45;;;;;;;;;;5071914;28;20079;-51
2022/06/19 02:14:01;;;;;;;8.13;2.75;;;;;;;;;;5072135;28;20107;-49
2022/06/19 02:16:27;;;;;;;6.85;2.00;;;;;;;;;;5071329;28;20485;-57
2022/06/19 02:18:54;;;;;;;13.88;4.22;;;;;;;;;;5072353;28;20022;-49
2022/06/19 02:21:22;;;;;;;7.93;2.33;;;;;;;;;;5072311;28;20021;-48
2022/06/19 02:23:49;;;;;;;9.10;2.53;;;;;;;;;;5070059;28;20045;-49
2022/06/19 02:26:16;;;;;;;4.50;2.05;;;;;;;;;;5072070;28;20537;-51
2022/06/19 02:28:44;;;;;;;11.80;3.20;;;;;;;;;;5073449;28;20035;-52
2022/06/19 02:31:10;;;;;;;7.38;2.60;;;;;;;;;;5073054;28;20505;-51
2022/06/19 02:33:43;;;;;;;6.43;2.20;;;;;;;;;;5072816;28;20374;-52
2022/06/19 02:36:27;;;;;;;8.05;2.75;;;;;;;;;;5073517;28;20116;-52
2022/06/19 02:38:53;;;;;;;5.38;2.05;;;;;;;;;;5073074;28;20443;-53
2022/06/19 02:41:20;;;;;;;6.18;1.83;;;;;;;;;;5070790;28;20115;-50
2022/06/19 02:43:46;;;;;;;6.68;2.30;;;;;;;;;;5072319;28;20055;-52
2022/06/19 02:46:12;;;;;;;10.63;2.58;;;;;;;;;;5072231;28;20060;-51
2022/06/19 02:48:38;;;;;;;7.03;2.50;;;;;;;;;;5073330;28;20024;-52
2022/06/19 02:51:05;;;;;;;6.55;2.38;;;;;;;;;;5073484;28;20028;-50
2022/06/19 02:53:31;;;;;;;8.82;3.17;;;;;;;;;;5072822;28;20020;-52
2022/06/19 02:55:58;;;;;;;5.55;2.40;;;;;;;;;;5073194;28;20060;-53
2022/06/19 02:58:24;;;;;;;6.60;2.20;;;;;;;;;;5069900;28;20056;-53
2022/06/19 03:00:51;;;;;;;9.60;2.58;;;;;;;;;;5069276;28;20036;-52
2022/06/19 03:03:23;;;;;;;8.73;2.50;;;;;;;;;;5093092;28;20081;-49
2022/06/19 03:05:49;;;;;;;9.30;2.42;;;;;;;;;;5092628;28;20393;-52
2022/06/19 03:08:15;;;;;;;5.43;2.03;;;;;;;;;;5093410;28;20392;-49
2022/06/19 03:10:41;;;;;;;10.38;2.38;;;;;;;;;;5080753;28;20032;-49
2022/06/19 03:13:07;;;;;;;5.88;2.08;;;;;;;;;;5081774;28;20020;-50
2022/06/19 03:15:33;;;;;;;5.80;1.88;;;;;;;;;;5071723;28;20060;-49
2022/06/19 03:17:59;;;;;;;9.57;2.42;;;;;;;;;;5070727;28;20471;-51
2022/06/19 03:20:26;;;;;;;10.15;2.25;;;;;;;;;;5071256;28;20070;-54
2022/06/19 03:22:52;;;;;;;9.00;2.25;;;;;;;;;;5072068;28;20131;-50
2022/06/19 03:25:18;;;;;;;5.72;2.10;;;;;;;;;;5072467;28;20103;-51
2022/06/19 03:27:45;;;;;;;7.55;1.98;;;;;;;;;;5072682;28;20070;-52
2022/06/19 03:30:12;;;;;;;9.38;3.10;;;;;;;;;;5072221;28;20396;-49
2022/06/19 03:32:38;;;;;;;8.52;3.45;;;;;;;;;;5069525;28;20025;-53
2022/06/19 03:35:04;;;;;;;8.55;2.15;;;;;;;;;;5085592;28;20392;-53
2022/06/19 03:37:30;;;;;;;5.63;2.17;;;;;;;;;;5071682;28;20032;-53
2022/06/19 03:39:56;;;;;;;7.75;2.33;;;;;;;;;;5072851;28;20031;-51
2022/06/19 03:42:22;;;;;;;5.53;1.95;;;;;;;;;;5072713;28;20029;-52
2022/06/19 03:44:48;;;;;;;8.52;2.58;;;;;;;;;;5071330;28;20118;-52
2022/06/19 03:47:25;;;;;;;7.40;2.72;;;;;;;;;;5072868;28;20397;-49
2022/06/19 03:49:51;;;;;;;7.22;2.67;;;;;;;;;;5072198;28;20056;-50
2022/06/19 03:52:17;;;;;;;8.18;2.00;;;;;;;;;;5070568;28;20020;-49
2022/06/19 03:54:43;;;;;;;6.85;2.80;;;;;;;;;;5071152;28;20409;-50
2022/06/19 03:57:11;;;;;;;6.35;2.40;;;;;;;;;;5071804;28;20059;-52
2022/06/19 03:59:37;;;;;;;5.50;1.95;;;;;;;;;;5071912;28;20024;-56
2022/06/19 04:02:04;;;;;;;6.20;2.67;;;;;;;;;;5072519;28;20020;-52
2022/06/19 04:04:30;;;;;;;5.35;2.30;;;;;;;;;;5071446;28;20056;-58
2022/06/19 04:06:56;;;;;;;9.60;2.83;;;;;;;;;;5070916;28;20047;-53
2022/06/19 04:09:22;;;;;;;7.97;2.88;;;;;;;;;;5073649;28;20025;-52
2022/06/19 04:11:48;;;;;;;4.88;1.98;;;;;;;;;;5090505;28;20475;-48
2022/06/19 04:14:18;;;;;;;5.47;2.97;;;;;;;;;;5072420;28;20096;-52
2022/06/19 04:16:44;;;;;;;6.47;2.83;;;;;;;;;;5071419;28;20090;-48
2022/06/19 04:19:10;;;;;;;6.53;2.05;;;;;;;;;;5072472;28;20048;-48
2022/06/19 04:21:40;;;;;;;8.68;2.90;;;;;;;;;;5071803;28;20027;-48
2022/06/19 04:24:07;;;;;;;6.72;2.33;;;;;;;;;;5070435;28;20111;-52
2022/06/19 04:26:35;;;;;;;8.00;3.30;;;;;;;;;;5070577;28;20070;-51
2022/06/19 04:29:01;;;;;;;7.30;2.30;;;;;;;;;;5071886;28;20446;-51
2022/06/19 04:31:28;;;;;;;10.48;2.55;;;;;;;;;;5071299;28;20025;-49
2022/06/19 04:33:54;;;;;;;8.63;2.40;;;;;;;;;;5070607;28;20108;-53
2022/06/19 04:36:21;;;;;;;10.52;2.42;;;;;;;;;;5071712;28;20063;-52
2022/06/19 04:38:50;;;;;;;4.55;2.10;;;;;;;;;;5069263;28;20381;-50
2022/06/19 04:41:17;;;;;;;12.32;2.50;;;;;;;;;;5064760;28;20025;-49
2022/06/19 04:43:43;;;;;;;10.15;3.63;;;;;;;;;;5070327;28;20543;-52
2022/06/19 04:46:09;;;;;;;7.10;2.38;;;;;;;;;;5071889;28;20036;-52
2022/06/19 04:48:35;;;;;;;8.27;2.72;;;;;;;;;;5074037;28;20044;-52
2022/06/19 04:51:02;;;;;;;9.48;2.30;;;;;;;;;;5074743;28;20028;-52
2022/06/19 04:53:28;;;;;;;4.95;1.98;;;;;;;;;;5075045;28;20047;-52
2022/06/19 04:55:54;;;;;;;5.82;2.40;;;;;;;;;;5074839;28;20028;-51
2022/06/19 04:58:24;;;;;;;5.72;1.90;;;;;;;;;;5067621;28;20028;-51
2022/06/19 05:00:50;;;;;;;8.23;2.25;;;;;;;;;;5054382;28;20025;-51
2022/06/19 05:03:17;;;;;;;7.75;2.95;;;;;;;;;;5066364;28;20377;-50
2022/06/19 05:05:43;;;;;;;10.13;3.03;;;;;;;;;;5074719;28;20128;-53
2022/06/19 05:08:09;;;;;;;5.63;2.40;;;;;;;;;;5075696;28;20107;-52
2022/06/19 05:10:35;;;;;;;5.53;2.58;;;;;;;;;;5086043;28;20059;-56
2022/06/19 05:13:02;;;;;;;8.25;2.75;;;;;;;;;;5095169;28;20078;-52
2022/06/19 05:15:28;;;;;;;7.13;2.30;;;;;;;;;;5073205;28;20439;-51
2022/06/19 05:17:56;;;;;;;4.18;2.22;;;;;;;;;;5075334;28;20021;-50
2022/06/19 05:20:22;;;;;;;10.48;3.00;;;;;;;;;;5058823;28;20531;-49
2022/06/19 05:22:48;;;;;;;8.48;4.10;;;;;;;;;;5094457;28;20032;-49
2022/06/19 05:25:14;;;;;;;7.22;2.25;;;;;;;;;;5095302;28;20039;-48
2022/06/19 05:27:40;;;;;;;10.10;3.45;;;;;;;;;;5095179;28;20157;-52
2022/06/19 05:30:07;;;;;;;7.20;2.80;;;;;;;;;;5083018;28;20028;-50
2022/06/19 05:32:33;;;;;;;8.25;3.05;;;;;;;;;;5073985;28;20042;-56
2022/06/19 05:34:59;;;;;;;9.77;2.85;;;;;;;;;;5074402;28;20440;-49
2022/06/19 05:37:25;;;;;;;7.10;2.42;;;;;;;;;;5074384;28;20031;-50
2022/06/19 05:39:51;;;;;;;6.82;2.17;;;;;;;;;;5073525;28;20465;-49
2022/06/19 05:42:18;;;;;;;11.60;3.33;;;;;;;;;;5074463;28;20050;-49
2022/06/19 05:44:44;;;;;;;8.05;2.47;;;;;;;;;;5072394;28;20039;-51
2022/06/19 05:47:10;;;;;;;10.82;3.15;;;;;;;;;;5074472;28;20039;-52
2022/06/19 05:49:36;;;;;;;7.50;2.85;;;;;;;;;;5074272;28;20112;-55
2022/06/19 05:52:03;;;;;;;9.38;3.33;;;;;;;;;;5073986;28;20498;-49
2022/06/19 05:54:29;;;;;;;8.45;2.60;;;;;;;;;;5073942;28;20032;-51
2022/06/19 05:56:56;;;;;;;10.35;2.83;;;;;;;;;;5073413;28;20096;-49
2022/06/19 05:59:22;;;;;;;11.05;2.90;;;;;;;;;;5073668;28;20457;-53
2022/06/19 06:01:48;;;;;;;9.05;2.65;;;;;;;;;;5071324;28;20389;-47
2022/06/19 06:04:14;;;;;;;7.80;2.40;;;;;;;;;;5073530;28;20052;-48
2022/06/19 06:06:41;;;;;;;6.00;2.42;;;;;;;;;;5074065;28;20465;-50
2022/06/19 06:09:07;;;;;;;10.75;3.33;;;;;;;;;;5074639;28;20074;-52
2022/06/19 06:11:33;;;;;;;9.25;3.35;;;;;;;;;;5093394;28;20062;-52
2022/06/19 06:13:59;;;;;;;13.25;3.22;;;;;;;;;;5081462;28;20056;-52
2022/06/19 06:16:25;;;;;;;9.50;3.13;;;;;;;;;;5073583;28;20056;-53
2022/06/19 06:18:52;;;;;;;8.77;3.17;;;;;;;;;;5071137;28;20051;-54
2022/06/19 06:21:19;;;;;;;14.23;2.92;;;;;;;;;;5071988;28;20032;-52
2022/06/19 06:23:46;;;;;;;19.15;3.15;;;;;;;;;;5072646;28;20052;-53
2022/06/19 06:26:19;;;;;;;9.93;3.05;;;;;;;;;;5073832;28;20107;-54
2022/06/19 06:28:46;;;;;;;10.32;3.00;;;;;;;;;;5073840;28;20119;-52
2022/06/19 06:31:13;;;;;;;9.20;2.65;;;;;;;;;;5073305;28;20031;-50
2022/06/19 06:33:40;;;;;;;14.15;3.60;;;;;;;;;;5071695;28;20048;-58
2022/06/19 06:36:06;;;;;;;10.00;3.17;;;;;;;;;;5071425;28;20439;-51
2022/06/19 06:38:32;;;;;;;7.72;2.65;;;;;;;;;;5073369;28;20039;-51
2022/06/19 06:40:58;;;;;;;10.55;2.97;;;;;;;;;;5072988;28;20025;-52
2022/06/19 06:43:25;;;;;;;14.90;2.97;;;;;;;;;;5073142;28;20058;-50
2022/06/19 06:45:51;;;;;;;6.50;2.60;;;;;;;;;;5072843;28;20469;-52
2022/06/19 06:48:18;;;;;;;9.13;2.38;;;;;;;;;;5073604;28;20109;-56
2022/06/19 06:50:44;;;;;;;7.10;2.42;;;;;;;;;;5072828;28;20025;-51
2022/06/19 06:53:11;;;;;;;10.45;2.47;;;;;;;;;;5070653;28;20079;-48
2022/06/19 06:55:38;;;;;;;10.25;2.67;;;;;;;;;;5073652;28;20051;-52
2022/06/19 06:58:04;;;;;;;8.98;2.20;;;;;;;;;;5073412;28;20094;-51
2022/06/19 07:00:30;;;;;;;8.88;3.03;;;;;;;;;;5073080;28;20424;-52
2022/06/19 07:02:57;;;;;;;15.85;3.10;;;;;;;;;;5072707;28;20024;-51
2022/06/19 07:05:23;;;;;;;13.93;2.63;;;;;;;;;;5072012;28;20067;-49
2022/06/19 07:07:49;;;;;;;9.90;3.03;;;;;;;;;;5069829;28;20024;-54
2022/06/19 07:10:15;;;;;;;12.43;3.13;;;;;;;;;;5080969;28;20020;-55
2022/06/19 07:12:41;;;;;;;9.63;2.95;;;;;;;;;;5077940;28;20480;-58
2022/06/19 07:15:09;;;;;;;10.77;2.80;;;;;;;;;;5073189;28;20025;-52
2022/06/19 07:17:35;;;;;;;8.10;2.95;;;;;;;;;;5072582;28;20029;-52
2022/06/19 07:20:02;;;;;;;8.68;2.22;;;;;;;;;;5071971;28;20019;-52
2022/06/19 07:22:28;;;;;;;11.10;2.88;;;;;;;;;;5070048;28;20054;-52
2022/06/19 07:24:54;;;;;;;7.63;2.47;;;;;;;;;;5070277;28;20040;-54
2022/06/19 07:27:20;;;;;;;9.25;2.55;;;;;;;;;;5071204;28;20047;-53
2022/06/19 07:29:46;;;;;;;13.90;3.22;;;;;;;;;;5069809;28;20032;-49
2022/06/19 07:32:12;;;;;;;12.93;2.78;;;;;;;;;;5070661;28;20070;-52
2022/06/19 07:34:39;;;;;;;10.57;3.03;;;;;;;;;;5070304;28;20048;-51
2022/06/19 07:37:05;;;;;;;7.43;2.80;;;;;;;;;;5070013;28;20052;-49
2022/06/19 07:39:33;;;;;;;10.57;3.42;;;;;;;;;;5068983;28;20028;-53
2022/06/19 07:41:59;;;;;;;5.88;2.40;;;;;;;;;;5067337;28;20040;-53
2022/06/19 07:44:25;;;;;;;9.85;3.60;;;;;;;;;;5070392;28;20048;-49
2022/06/19 07:52:21;;;;;;;15.70;3.22;;;;;;;;;;5069714;28;20082;-48
2022/06/19 07:54:47;;;;;;;12.45;2.80;;;;;;;;;;5067894;28;20021;-49
2022/06/19 07:57:14;;;;;;;8.52;2.40;;;;;;;;;;5069641;28;20044;-52
2022/06/19 07:59:40;;;;;;;10.00;2.45;;;;;;;;;;5070247;28;20436;-59
2022/06/19 08:02:06;;;;;;;9.07;2.58;;;;;;;;;;5070384;28;20016;-53
2022/06/19 08:04:32;;;;;;;7.22;2.60;;;;;;;;;;5070486;28;20101;-54
2022/06/19 08:06:58;;;;;;;10.10;2.80;;;;;;;;;;5070498;28;20033;-54
2022/06/19 08:09:24;;;;;;;10.80;2.58;;;;;;;;;;5071480;28;20386;-53
2022/06/19 08:11:50;;;;;;;8.38;2.97;;;;;;;;;;5070138;28;20040;-57
2022/06/19 08:14:16;;;;;;;8.30;2.58;;;;;;;;;;5071539;28;20016;-49
2022/06/19 08:16:42;;;;;;;8.80;3.28;;;;;;;;;;5069498;28;20016;-53
2022/06/19 08:19:08;;;;;;;7.40;2.70;;;;;;;;;;5058371;28;20021;-55
2022/06/19 08:21:34;;;;;;;8.50;2.67;;;;;;;;;;5073715;28;20381;-49
2022/06/19 08:24:00;;;;;;;8.05;3.13;;;;;;;;;;5075864;28;20087;-53
2022/06/19 08:26:26;;;;;;;10.55;3.00;;;;;;;;;;5072938;28;20032;-51
2022/06/19 08:29:01;;;;;;;8.70;2.40;;;;;;;;;;5077879;28;20054;-49
2022/06/19 08:31:31;;;;;;;9.10;3.60;;;;;;;;;;5075631;28;20020;-49
2022/06/19 08:33:57;;;;;;;7.22;2.55;;;;;;;;;;5072708;28;20071;-48
2022/06/19 08:36:24;;;;;;;5.43;2.70;;;;;;;;;;5075310;28;20052;-50
2022/06/19 08:38:52;;;;;;;7.05;3.00;;;;;;;;;;5074090;28;20024;-52
2022/06/19 08:41:28;;;;;;;7.78;3.10;;;;;;;;;;5075082;28;20377;-52
2022/06/19 08:44:12;;;;;;;5.05;2.95;;;;;;;;;;5072443;28;20078;-52
2022/06/19 08:46:44;;;;;;;5.78;2.95;;;;;;;;;;5071669;28;20024;-53
2022/06/19 08:49:30;;;;;;;11.35;2.95;;;;;;;;;;5075995;28;20032;-50
2022/06/19 08:51:58;;;;;;;6.65;2.60;;;;;;;;;;5071442;28;20033;-52
2022/06/19 08:54:43;;;;;;;7.72;2.88;;;;;;;;;;5074250;28;20029;-54
2022/06/19 08:57:18;;;;;;;8.77;2.88;;;;;;;;;;5076569;28;20389;-50
2022/06/19 09:00:03;;;;;;;8.98;2.42;;;;;;;;;;5069437;28;20021;-57
2022/06/19 09:02:39;;;;;;;7.72;2.88;;;;;;;;;;5092062;28;20036;-52
2022/06/19 09:08:19;;;;;;;5.93;2.75;;;;;;;;;;5073956;28;20039;-53
2022/06/19 09:11:00;;;;;;;5.20;2.50;;;;;;;;;;5076015;28;20044;-54
2022/06/19 09:13:29;;;;;;;5.65;3.05;;;;;;;;;;5091596;28;20021;-54
2022/06/19 09:16:01;;;;;;;5.88;3.22;;;;;;;;;;5072089;28;20036;-52
2022/06/19 09:18:53;;;;;;;6.20;2.92;;;;;;;;;;5081673;28;20033;-54
2022/06/19 09:21:19;;;;;;;;;;;;;;;;;;5065137;28;20035;-53
2022/06/19 09:23:54;;;;;;;5.65;3.22;;;;;;;;;;5073367;28;19908;-52
2022/06/19 09:26:35;;;;;;;5.85;3.00;;;;;;;;;;5077252;28;20120;-53
2022/06/19 09:29:22;;;;;;;7.80;3.23;;;;;;;;;;5094983;28;20073;-54
2022/06/19 09:31:59;;;;;;;7.57;2.97;;;;;;;;;;5094240;28;20020;-53
2022/06/19 09:34:29;;;;;;;6.13;2.92;;;;;;;;;;5094174;28;20480;-54
2022/06/19 09:36:57;;;;;;;5.55;3.42;;;;;;;;;;5094054;28;20099;-54
2022/06/19 09:39:26;;;;;;;7.13;3.40;;;;;;;;;;5072333;28;20024;-57
2022/06/19 09:41:58;;;;;;;5.78;3.15;;;;;;;;;;5072470;28;20025;-58
2022/06/19 09:44:36;;;;;;;5.43;3.50;;;;;;;;;;5071126;28;20374;-58
2022/06/19 09:47:05;;;;;;;9.35;3.38;;;;;;;;;;5071332;28;20053;-63
2022/06/19 09:49:36;;;;;;;8.68;3.45;;;;;;;;;;5073919;28;20107;-60
2022/06/19 09:52:06;;;;;;;12.68;3.63;;;;;;;;;;5072864;28;20525;-60
2022/06/19 09:54:36;;;;;;;7.57;3.63;;;;;;;;;;5072944;28;20025;-58
2022/06/19 09:57:11;;;;;;;7.03;3.78;;;;;;;;;;5070651;28;20618;-58
2022/06/19 09:59:43;;;;;;;8.60;3.40;;;;;;;;;;5073556;28;20107;-58
2022/06/19 10:02:16;;;;;;;6.07;3.22;;;;;;;;;;5074458;28;20064;-59
2022/06/19 10:04:47;;;;;;;7.22;3.72;;;;;;;;;;5072465;28;20135;-60
2022/06/19 10:07:21;;;;;;;6.13;2.85;;;;;;;;;;5073499;28;20028;-58
2022/06/19 10:09:54;;;;;;;5.95;3.78;;;;;;;;;;5074666;28;20429;-58
2022/06/19 10:12:46;;;;;;;6.35;2.70;;;;;;;;;;5070981;28;20013;-59
2022/06/19 10:15:14;;;;;;;8.43;3.38;;;;;;;;;;5068760;28;20371;-59
2022/06/19 10:17:46;;;;;;;7.53;3.58;;;;;;;;;;5073000;28;20418;-59
2022/06/19 10:20:17;;;;;;;7.10;3.88;;;;;;;;;;5073009;28;20013;-57
2022/06/19 10:22:46;;;;;;;3.90;2.78;;;;;;;;;;5072924;28;20437;-58
2022/06/19 10:25:34;;;;;;;5.45;3.25;;;;;;;;;;5072919;28;20029;-57
2022/06/19 10:28:24;;;;;;;7.97;3.03;;;;;;;;;;5070876;28;20484;-58
2022/06/19 10:31:02;;;;;;;5.43;3.22;;;;;;;;;;5070326;28;20032;-59
2022/06/19 10:33:47;;;;;;;8.20;3.28;;;;;;;;;;5070510;28;20025;-58
2022/06/19 10:36:22;;;;;;;8.13;3.33;;;;;;;;;;5070893;28;20116;-59
2022/06/19 10:39:07;;;;;;;6.15;3.63;;;;;;;;;;5069188;28;20024;-59
2022/06/19 10:42:10;;;;;;;7.45;3.88;;;;;;;;;;5070934;28;20025;-58
2022/06/19 10:44:48;;;;;;;5.15;3.85;;;;;;;;;;5008859;28;20022;-58
2022/06/19 10:47:17;;;;;;;5.15;3.55;;;;;;;;;;5062670;28;20045;-57
2022/06/19 10:49:59;;;;;;;4.75;2.90;;;;;;;;;;5071999;28;20025;-58
2022/06/19 10:52:38;;;;;;;6.10;3.25;;;;;;;;;;5072246;28;20808;-58
2022/06/19 10:55:19;;;;;;;5.68;3.10;;;;;;;;;;5071597;28;20513;-57
2022/06/19 10:57:45;;;;;;;6.85;3.70;;;;;;;;;;5071952;28;20382;-57
2022/06/19 11:00:11;;;;;;;7.07;3.63;;;;;;;;;;5071795;28;20023;-58
2022/06/19 11:05:33;;;;;;;7.78;3.63;;;;;;;;;;5067712;28;20091;-57
2022/06/19 11:07:59;;;;;;;7.25;3.55;;;;;;;;;;5072306;28;20127;-57
2022/06/19 11:10:30;;;;;;;6.53;3.80;;;;;;;;;;5073260;28;20038;-57
2022/06/19 11:12:57;;;;;;;8.13;3.67;;;;;;;;;;5071143;28;20496;-59
2022/06/19 11:15:26;;;;;;;6.63;3.88;;;;;;;;;;5071876;28;20033;-58
2022/06/19 11:18:27;;;;;;;8.27;3.72;;;;;;;;;;5071370;28;20373;-59
2022/06/19 11:20:54;;;;;;;6.75;4.10;;;;;;;;;;5006998;28;20022;-55
2022/06/19 11:23:56;;;;;;;5.57;3.00;;;;;;;;;;5059982;28;20115;-55
2022/06/19 11:26:24;;;;;;;4.72;3.47;;;;;;;;;;5010059;28;20026;-57
2022/06/19 11:29:09;;;;;;;9.77;3.70;;;;;;;;;;5060746;28;20067;-58
2022/06/19 11:31:36;;;;;;;6.38;2.95;;;;;;;;;;5072259;28;20098;-54
2022/06/19 11:34:43;;;;;;;5.97;3.70;;;;;;;;;;5076126;28;20039;-61
2022/06/19 11:37:35;;;;;;;8.55;3.42;;;;;;;;;;5051133;28;20071;-59
2022/06/19 11:40:00;;;;;;;8.20;3.47;;;;;;;;;;4998021;28;20022;-59
2022/06/19 11:42:37;;;;;;;7.68;3.95;;;;;;;;;;5059021;28;20589;-58
2022/06/19 11:45:05;;;;;;;10.13;4.15;;;;;;;;;;5053968;28;20040;-59
2022/06/19 11:47:39;;;;;;;8.02;3.47;;;;;;;;;;5066070;28;20037;-60
2022/06/19 11:50:14;;;;;;;8.93;3.65;;;;;;;;;;5061676;28;20036;-59
2022/06/19 11:52:42;;;;;;;7.00;4.25;;;;;;;;;;5056844;28;20039;-60
2022/06/19 11:55:15;;;;;;;7.80;3.97;;;;;;;;;;5060841;28;20723;-58
2022/06/19 11:57:41;;;;;;;7.93;4.32;;;;;;;;;;5069317;28;20377;-61
2022/06/19 12:00:08;;;;;;;7.25;3.22;;;;;;;;;;5064464;28;20640;-58
2022/06/19 12:02:38;;;;;;;8.38;3.88;;;;;;;;;;5062134;28;20036;-58
2022/06/19 12:05:25;;;;;;;10.50;3.70;;;;;;;;;;5080037;28;20052;-57
2022/06/19 12:07:52;;;;;;;6.88;3.85;;;;;;;;;;5066540;28;20103;-57
2022/06/19 12:10:20;;;;;;;6.97;3.50;;;;;;;;;;5056120;28;20025;-58
2022/06/19 12:12:54;;;;;;;4.35;3.17;;;;;;;;;;5071884;28;20772;-60
2022/06/19 12:15:26;;;;;;;9.02;4.50;;;;;;;;;;5068791;28;20028;-53
2022/06/19 12:17:56;;;;;;;8.73;3.28;;;;;;;;;;5063996;28;20021;-57
2022/06/19 12:20:24;;;;;;;5.60;3.17;;;;;;;;;;5072369;28;20470;-57
2022/06/19 12:22:53;;;;;;;6.47;3.38;;;;;;;;;;5069846;28;20024;-53
2022/06/19 12:25:25;;;;;;;6.10;3.53;;;;;;;;;;5069935;28;20029;-58
2022/06/19 12:28:10;;;;;;;5.50;3.67;;;;;;;;;;5072768;28;20037;-61
2022/06/19 12:30:51;;;;;;;6.40;3.72;;;;;;;;;;5071835;28;20024;-59
2022/06/19 12:33:23;;;;;;;5.03;3.10;;;;;;;;;;5081378;28;20031;-60
2022/06/19 12:35:50;;;;;;;6.65;3.53;;;;;;;;;;5080648;28;20071;-59
2022/06/19 12:38:17;;;;;;;5.43;3.20;;;;;;;;;;5064092;28;20087;-57
2022/06/19 12:41:02;;;;;;;4.18;3.05;;;;;;;;;;5071640;28;20031;-56
2022/06/19 12:43:40;;;;;;;8.00;2.92;;;;;;;;;;5069021;28;20033;-51
2022/06/19 12:46:13;;;;;;;6.60;3.38;;;;;;;;;;5068326;28;20771;-55
2022/06/19 12:48:54;;;;;;;7.00;3.15;;;;;;;;;;5074423;28;20366;-60
2022/06/19 12:51:22;;;;;;;4.40;3.28;;;;;;;;;;5071373;28;20020;-57
2022/06/19 12:54:18;;;;;;;6.75;3.13;;;;;;;;;;5073622;28;20025;-57
2022/06/19 12:56:53;;;;;;;4.82;3.13;;;;;;;;;;5071329;28;20373;-57
2022/06/19 12:59:29;;;;;;;7.20;3.05;;;;;;;;;;5071273;28;20119;-57
2022/06/19 13:02:00;;;;;;;6.63;3.13;;;;;;;;;;5071425;28;20024;-57
2022/06/19 13:04:29;;;;;;;4.85;3.60;;;;;;;;;;5069208;28;20053;-58
2022/06/19 13:06:58;;;;;;;6.05;3.38;;;;;;;;;;5064502;28;20043;-56
2022/06/19 13:09:27;;;;;;;5.90;3.10;;;;;;;;;;5070308;28;20028;-58
2022/06/19 13:11:53;;;;;;;5.78;3.40;;;;;;;;;;5072197;28;20017;-57
2022/06/19 13:14:46;;;;;;;5.30;3.25;;;;;;;;;;5072453;28;20021;-57
2022/06/19 13:17:28;;;;;;;6.82;3.88;;;;;;;;;;5057083;28;20032;-56
2022/06/19 13:20:00;;;;;;;6.18;3.33;;;;;;;;;;5070113;28;20365;-57
2022/06/19 13:22:31;;;;;;;6.85;3.42;;;;;;;;;;5067337;28;20492;-56
2022/06/19 13:25:01;;;;;;;7.57;4.00;;;;;;;;;;5073764;28;20055;-48
2022/06/19 13:27:32;;;;;;;7.10;3.03;;;;;;;;;;5074001;28;20428;-49
2022/06/19 13:30:01;;;;;;;6.78;3.13;;;;;;;;;;5074061;28;20036;-47
2022/06/19 13:32:46;;;;;;;4.13;2.90;;;;;;;;;;5074169;28;20021;-52
2022/06/19 13:35:32;;;;;;;6.63;3.42;;;;;;;;;;5071703;28;20115;-49
2022/06/19 13:38:31;;;;;;;8.40;3.50;;;;;;;;;;5060039;28;20048;-56
2022/06/19 13:41:02;;;;;;;6.10;2.90;;;;;;;;;;5044018;28;20028;-57
2022/06/19 13:43:39;;;;;;;6.22;3.55;;;;;;;;;;5073723;28;20047;-56
2022/06/19 13:46:08;;;;;;;4.60;3.28;;;;;;;;;;5072695;28;20405;-59
2022/06/19 13:48:40;;;;;;;6.20;3.78;;;;;;;;;;5073472;28;20036;-59
2022/06/19 13:51:12;;;;;;;5.88;3.63;;;;;;;;;;5072187;28;20036;-61
2022/06/19 13:53:41;;;;;;;5.30;2.85;;;;;;;;;;5072850;28;20036;-51
2022/06/19 13:56:07;;;;;;;6.50;3.10;;;;;;;;;;5072685;28;20027;-56
2022/06/19 13:58:33;;;;;;;5.85;4.05;;;;;;;;;;5069638;28;20024;-51
2022/06/19 14:01:11;;;;;;;4.25;3.33;;;;;;;;;;5070452;28;20031;-52
2022/06/19 14:06:41;;;;;;;6.13;3.35;;;;;;;;;;5069625;28;20067;-57
2022/06/19 14:09:16;;;;;;;5.60;3.67;;;;;;;;;;5071880;28;20583;-56
2022/06/19 14:14:31;;;;;;;6.65;3.70;;;;;;;;;;5066306;28;20116;-56
2022/06/19 14:17:02;;;;;;;3.80;2.97;;;;;;;;;;5071223;28;20038;-60
2022/06/19 14:19:34;;;;;;;5.63;3.20;;;;;;;;;;5074119;28;20491;-57
2022/06/19 14:22:19;;;;;;;5.28;3.35;;;;;;;;;;5073367;28;20028;-58
2022/06/19 14:25:08;;;;;;;5.13;2.92;;;;;;;;;;5072145;28;20119;-59
2022/06/19 14:27:50;;;;;;;5.10;3.55;;;;;;;;;;5074867;28;20025;-58
2022/06/19 14:30:18;;;;;;;6.32;3.03;;;;;;;;;;5072575;28;20087;-60
2022/06/19 14:32:44;;;;;;;4.65;3.10;;;;;;;;;;5068544;28;20146;-57
2022/06/19 14:35:10;;;;;;;5.22;2.97;;;;;;;;;;5070482;28;20135;-57
2022/06/19 14:37:41;;;;;;;3.55;2.95;;;;;;;;;;5072287;28;20047;-57
2022/06/19 14:40:19;;;;;;;5.37;2.87;;;;;;;;;;5068085;28;20024;-57
2022/06/19 14:42:51;;;;;;;5.57;3.15;;;;;;;;;;5072619;28;20036;-57
2022/06/19 14:45:22;;;;;;;4.38;3.17;;;;;;;;;;5069485;28;20039;-57
2022/06/19 14:47:51;;;;;;;4.80;2.97;;;;;;;;;;5057598;28;20105;-56
2022/06/19 14:50:37;;;;;;;6.07;3.42;;;;;;;;;;5074873;28;20024;-45
2022/06/19 14:53:12;;;;;;;4.55;3.40;;;;;;;;;;5067331;28;20078;-56
2022/06/19 14:55:44;;;;;;;6.05;2.53;;;;;;;;;;5068621;28;20040;-52
2022/06/19 14:58:13;;;;;;;4.07;3.20;;;;;;;;;;5069136;28;20031;-51
2022/06/19 15:00:41;;;;;;;7.38;4.03;;;;;;;;;;5069907;28;20028;-51
2022/06/19 15:03:23;;;;;;;5.32;3.28;;;;;;;;;;5076645;28;20570;-51
2022/06/19 15:05:52;;;;;;;5.25;3.25;;;;;;;;;;5073638;28;20078;-50
2022/06/19 15:08:45;;;;;;;4.60;2.75;;;;;;;;;;5062177;28;20048;-49
2022/06/19 15:11:24;;;;;;;3.20;2.83;;;;;;;;;;5052079;28;20049;-47
2022/06/19 15:13:51;;;;;;;4.03;2.85;;;;;;;;;;5076294;28;20156;-54
2022/06/19 15:16:32;;;;;;;7.00;2.40;;;;;;;;;;5054765;28;20029;-48
2022/06/19 15:19:04;;;;;;;4.22;2.67;;;;;;;;;;5047188;28;20020;-49